sensor_id;sensor_type;location;lat;lon;timestamp;P1;durP1;ratioP1;P2;durP2;ratioP2
39322;SDS011;25036;53.638;10.134;2023-05-16T00:00:14;4.03;;;1.30;;
39322;SDS011;25036;53.638;10.134;2023-05-16T00:01:15;3.15;;;1.40;;
39322;SDS011;25036;53.638;10.134;2023-05-16T00:02:15;2.00;;;1.08;;
39322;SDS011;25036;53.638;10.134;2023-05-16T00:03:15;3.47;;;1.55;;
39322;SDS011;25036;53.638;10.134;2023-05-16T00:04:16;3.95;;;1.48;;
39322;SDS011;25036;53.638;10.134;2023-05-16T00:05:16;2.33;;;1.20;;
39322;SDS011;25036;53.638;10.134;2023-05-16T00:06:17;1.42;;;1.30;;
39322;SDS011;25036;53.638;10.134;2023-05-16T00:07:17;2.33;;;1.50;;
39322;SDS011;25036;53.638;10.134;2023-05-16T00:08:17;2.73;;;1.50;;
39322;SDS011;25036;53.638;10.134;2023-05-16T00:09:17;2.47;;;1.38;;
39322;SDS011;25036;53.638;10.134;2023-05-16T00:10:17;2.00;;;1.30;;
39322;SDS011;25036;53.638;10.134;2023-05-16T00:11:17;3.45;;;1.60;;
39322;SDS011;25036;53.638;10.134;2023-05-16T00:12:18;3.13;;;1.60;;
39322;SDS011;25036;53.638;10.134;2023-05-16T00:13:18;3.20;;;1.42;;
39322;SDS011;25036;53.638;10.134;2023-05-16T00:14:24;2.08;;;1.40;;
39322;SDS011;25036;53.638;10.134;2023-05-16T00:15:25;4.88;;;1.50;;
39322;SDS011;25036;53.638;10.134;2023-05-16T00:16:25;2.40;;;1.27;;
39322;SDS011;25036;53.638;10.134;2023-05-16T00:17:28;2.15;;;1.40;;
39322;SDS011;25036;53.638;10.134;2023-05-16T00:18:28;3.13;;;1.40;;
39322;SDS011;25036;53.638;10.134;2023-05-16T00:19:29;1.95;;;1.10;;
39322;SDS011;25036;53.638;10.134;2023-05-16T00:20:29;2.00;;;1.38;;
39322;SDS011;25036;53.638;10.134;2023-05-16T00:21:29;3.60;;;1.20;;
39322;SDS011;25036;53.638;10.134;2023-05-16T00:22:30;2.25;;;1.52;;
39322;SDS011;25036;53.638;10.134;2023-05-16T00:23:30;2.27;;;1.60;;
39322;SDS011;25036;53.638;10.134;2023-05-16T00:24:31;2.47;;;1.23;;
39322;SDS011;25036;53.638;10.134;2023-05-16T00:25:31;2.55;;;1.20;;
39322;SDS011;25036;53.638;10.134;2023-05-16T00:26:31;3.57;;;1.20;;
39322;SDS011;25036;53.638;10.134;2023-05-16T00:27:32;2.20;;;1.10;;
39322;SDS011;25036;53.638;10.134;2023-05-16T00:28:33;4.18;;;1.40;;
39322;SDS011;25036;53.638;10.134;2023-05-16T00:29:33;2.40;;;1.20;;
39322;SDS011;25036;53.638;10.134;2023-05-16T00:30:33;1.75;;;1.10;;
39322;SDS011;25036;53.638;10.134;2023-05-16T00:31:34;3.10;;;1.30;;
39322;SDS011;25036;53.638;10.134;2023-05-16T00:32:34;3.38;;;1.40;;
39322;SDS011;25036;53.638;10.134;2023-05-16T00:33:35;2.65;;;1.20;;
39322;SDS011;25036;53.638;10.134;2023-05-16T00:34:35;2.77;;;1.20;;
39322;SDS011;25036;53.638;10.134;2023-05-16T00:35:35;2.20;;;1.23;;
39322;SDS011;25036;53.638;10.134;2023-05-16T00:36:35;4.50;;;1.77;;
39322;SDS011;25036;53.638;10.134;2023-05-16T00:37:36;2.43;;;1.33;;
39322;SDS011;25036;53.638;10.134;2023-05-16T00:38:36;3.40;;;1.20;;
39322;SDS011;25036;53.638;10.134;2023-05-16T00:39:36;4.53;;;1.47;;
39322;SDS011;25036;53.638;10.134;2023-05-16T00:40:36;2.70;;;1.60;;
39322;SDS011;25036;53.638;10.134;2023-05-16T00:41:37;2.78;;;1.30;;
39322;SDS011;25036;53.638;10.134;2023-05-16T00:42:38;2.20;;;1.20;;
39322;SDS011;25036;53.638;10.134;2023-05-16T00:43:38;2.90;;;1.30;;
39322;SDS011;25036;53.638;10.134;2023-05-16T00:44:39;2.88;;;1.50;;
39322;SDS011;25036;53.638;10.134;2023-05-16T00:45:40;1.98;;;1.50;;
39322;SDS011;25036;53.638;10.134;2023-05-16T00:46:40;1.37;;;1.07;;
39322;SDS011;25036;53.638;10.134;2023-05-16T00:47:40;2.90;;;1.27;;
39322;SDS011;25036;53.638;10.134;2023-05-16T00:48:40;2.78;;;1.35;;
39322;SDS011;25036;53.638;10.134;2023-05-16T00:49:41;1.97;;;1.50;;
39322;SDS011;25036;53.638;10.134;2023-05-16T00:50:41;2.72;;;1.40;;
39322;SDS011;25036;53.638;10.134;2023-05-16T00:51:41;1.77;;;1.45;;
39322;SDS011;25036;53.638;10.134;2023-05-16T00:52:41;2.57;;;1.40;;
39322;SDS011;25036;53.638;10.134;2023-05-16T00:53:42;2.35;;;1.33;;
39322;SDS011;25036;53.638;10.134;2023-05-16T00:54:42;4.28;;;1.70;;
39322;SDS011;25036;53.638;10.134;2023-05-16T00:55:42;4.72;;;1.42;;
39322;SDS011;25036;53.638;10.134;2023-05-16T00:56:42;1.63;;;1.52;;
39322;SDS011;25036;53.638;10.134;2023-05-16T00:57:43;1.55;;;1.38;;
39322;SDS011;25036;53.638;10.134;2023-05-16T00:58:43;3.75;;;1.50;;
39322;SDS011;25036;53.638;10.134;2023-05-16T00:59:44;2.10;;;1.50;;
39322;SDS011;25036;53.638;10.134;2023-05-16T01:00:45;2.20;;;1.30;;
39322;SDS011;25036;53.638;10.134;2023-05-16T01:01:46;2.20;;;1.27;;
39322;SDS011;25036;53.638;10.134;2023-05-16T01:02:47;2.95;;;1.55;;
39322;SDS011;25036;53.638;10.134;2023-05-16T01:03:47;3.47;;;1.35;;
39322;SDS011;25036;53.638;10.134;2023-05-16T01:04:47;3.53;;;1.55;;
39322;SDS011;25036;53.638;10.134;2023-05-16T01:05:48;2.53;;;1.33;;
39322;SDS011;25036;53.638;10.134;2023-05-16T01:06:48;2.80;;;1.80;;
39322;SDS011;25036;53.638;10.134;2023-05-16T01:07:48;3.57;;;1.50;;
39322;SDS011;25036;53.638;10.134;2023-05-16T01:08:49;2.47;;;1.30;;
39322;SDS011;25036;53.638;10.134;2023-05-16T01:09:49;3.92;;;1.40;;
39322;SDS011;25036;53.638;10.134;2023-05-16T01:13:17;3.03;;;1.48;;
39322;SDS011;25036;53.638;10.134;2023-05-16T01:14:21;4.77;;;1.40;;
39322;SDS011;25036;53.638;10.134;2023-05-16T01:15:25;2.45;;;1.45;;
39322;SDS011;25036;53.638;10.134;2023-05-16T01:16:34;2.10;;;1.48;;
39322;SDS011;25036;53.638;10.134;2023-05-16T01:18:56;2.25;;;1.42;;
39322;SDS011;25036;53.638;10.134;2023-05-16T01:20:08;2.55;;;1.10;;
39322;SDS011;25036;53.638;10.134;2023-05-16T01:21:15;2.45;;;1.35;;
39322;SDS011;25036;53.638;10.134;2023-05-16T01:23:46;3.15;;;1.60;;
39322;SDS011;25036;53.638;10.134;2023-05-16T01:26:11;3.53;;;1.30;;
39322;SDS011;25036;53.638;10.134;2023-05-16T01:27:12;3.08;;;1.50;;
39322;SDS011;25036;53.638;10.134;2023-05-16T01:28:14;1.67;;;1.10;;
39322;SDS011;25036;53.638;10.134;2023-05-16T01:29:15;3.25;;;1.50;;
39322;SDS011;25036;53.638;10.134;2023-05-16T01:30:16;1.50;;;1.17;;
39322;SDS011;25036;53.638;10.134;2023-05-16T01:31:16;4.50;;;1.58;;
39322;SDS011;25036;53.638;10.134;2023-05-16T01:32:17;2.30;;;1.30;;
39322;SDS011;25036;53.638;10.134;2023-05-16T01:33:19;2.65;;;1.15;;
39322;SDS011;25036;53.638;10.134;2023-05-16T01:34:19;3.10;;;1.52;;
39322;SDS011;25036;53.638;10.134;2023-05-16T01:35:19;2.42;;;1.20;;
39322;SDS011;25036;53.638;10.134;2023-05-16T01:36:35;1.80;;;1.10;;
39322;SDS011;25036;53.638;10.134;2023-05-16T01:37:40;2.22;;;1.45;;
39322;SDS011;25036;53.638;10.134;2023-05-16T01:40:07;2.30;;;1.13;;
39322;SDS011;25036;53.638;10.134;2023-05-16T01:41:17;4.07;;;1.50;;
39322;SDS011;25036;53.638;10.134;2023-05-16T01:42:18;3.65;;;1.63;;
39322;SDS011;25036;53.638;10.134;2023-05-16T01:43:20;2.45;;;1.55;;
39322;SDS011;25036;53.638;10.134;2023-05-16T01:44:26;2.17;;;1.35;;
39322;SDS011;25036;53.638;10.134;2023-05-16T01:45:28;3.30;;;1.20;;
39322;SDS011;25036;53.638;10.134;2023-05-16T01:46:32;3.88;;;1.58;;
39322;SDS011;25036;53.638;10.134;2023-05-16T01:47:36;3.65;;;1.83;;
39322;SDS011;25036;53.638;10.134;2023-05-16T01:48:43;2.33;;;1.50;;
39322;SDS011;25036;53.638;10.134;2023-05-16T01:49:45;5.05;;;1.60;;
39322;SDS011;25036;53.638;10.134;2023-05-16T01:50:51;2.03;;;1.40;;
39322;SDS011;25036;53.638;10.134;2023-05-16T01:51:54;1.85;;;1.02;;
39322;SDS011;25036;53.638;10.134;2023-05-16T01:53:02;3.55;;;1.85;;
39322;SDS011;25036;53.638;10.134;2023-05-16T01:54:05;3.65;;;1.67;;
39322;SDS011;25036;53.638;10.134;2023-05-16T01:55:06;4.22;;;1.92;;
39322;SDS011;25036;53.638;10.134;2023-05-16T01:56:10;3.83;;;1.77;;
39322;SDS011;25036;53.638;10.134;2023-05-16T01:57:14;4.97;;;1.77;;
39322;SDS011;25036;53.638;10.134;2023-05-16T01:58:15;3.72;;;1.60;;
39322;SDS011;25036;53.638;10.134;2023-05-16T01:59:16;3.25;;;1.50;;
39322;SDS011;25036;53.638;10.134;2023-05-16T02:00:17;2.60;;;1.40;;
39322;SDS011;25036;53.638;10.134;2023-05-16T02:01:17;4.53;;;1.80;;
39322;SDS011;25036;53.638;10.134;2023-05-16T02:02:18;3.17;;;1.50;;
39322;SDS011;25036;53.638;10.134;2023-05-16T02:03:18;3.72;;;1.45;;
39322;SDS011;25036;53.638;10.134;2023-05-16T02:04:18;3.10;;;1.30;;
39322;SDS011;25036;53.638;10.134;2023-05-16T02:05:18;2.40;;;1.30;;
39322;SDS011;25036;53.638;10.134;2023-05-16T02:06:18;4.43;;;1.30;;
39322;SDS011;25036;53.638;10.134;2023-05-16T02:07:19;2.25;;;1.00;;
39322;SDS011;25036;53.638;10.134;2023-05-16T02:08:19;3.28;;;1.15;;
39322;SDS011;25036;53.638;10.134;2023-05-16T02:09:19;5.10;;;1.83;;
39322;SDS011;25036;53.638;10.134;2023-05-16T02:10:19;6.68;;;1.60;;
39322;SDS011;25036;53.638;10.134;2023-05-16T02:11:20;3.15;;;1.15;;
39322;SDS011;25036;53.638;10.134;2023-05-16T02:12:21;3.40;;;0.98;;
39322;SDS011;25036;53.638;10.134;2023-05-16T02:13:21;4.47;;;1.20;;
39322;SDS011;25036;53.638;10.134;2023-05-16T02:14:21;2.97;;;1.10;;
39322;SDS011;25036;53.638;10.134;2023-05-16T02:15:21;5.90;;;1.33;;
39322;SDS011;25036;53.638;10.134;2023-05-16T02:16:21;4.73;;;1.40;;
39322;SDS011;25036;53.638;10.134;2023-05-16T02:17:21;3.53;;;1.53;;
39322;SDS011;25036;53.638;10.134;2023-05-16T02:18:21;4.27;;;1.33;;
39322;SDS011;25036;53.638;10.134;2023-05-16T02:19:22;5.20;;;1.65;;
39322;SDS011;25036;53.638;10.134;2023-05-16T02:20:22;3.78;;;1.27;;
39322;SDS011;25036;53.638;10.134;2023-05-16T02:21:22;4.20;;;1.10;;
39322;SDS011;25036;53.638;10.134;2023-05-16T02:22:23;4.27;;;1.53;;
39322;SDS011;25036;53.638;10.134;2023-05-16T02:23:23;3.33;;;1.60;;
39322;SDS011;25036;53.638;10.134;2023-05-16T02:24:23;3.70;;;0.93;;
39322;SDS011;25036;53.638;10.134;2023-05-16T02:25:23;3.93;;;1.23;;
39322;SDS011;25036;53.638;10.134;2023-05-16T02:26:23;3.70;;;1.10;;
39322;SDS011;25036;53.638;10.134;2023-05-16T02:27:23;6.27;;;1.47;;
39322;SDS011;25036;53.638;10.134;2023-05-16T02:28:23;3.23;;;1.20;;
39322;SDS011;25036;53.638;10.134;2023-05-16T02:29:24;5.03;;;1.23;;
39322;SDS011;25036;53.638;10.134;2023-05-16T02:30:24;5.05;;;1.70;;
39322;SDS011;25036;53.638;10.134;2023-05-16T02:31:31;4.13;;;1.33;;
39322;SDS011;25036;53.638;10.134;2023-05-16T02:32:31;2.67;;;1.00;;
39322;SDS011;25036;53.638;10.134;2023-05-16T02:33:32;5.40;;;1.65;;
39322;SDS011;25036;53.638;10.134;2023-05-16T02:34:33;5.45;;;1.35;;
39322;SDS011;25036;53.638;10.134;2023-05-16T02:35:33;7.93;;;1.42;;
39322;SDS011;25036;53.638;10.134;2023-05-16T02:36:33;4.57;;;1.50;;
39322;SDS011;25036;53.638;10.134;2023-05-16T02:37:35;6.88;;;1.90;;
39322;SDS011;25036;53.638;10.134;2023-05-16T02:38:35;5.63;;;1.35;;
39322;SDS011;25036;53.638;10.134;2023-05-16T02:39:35;6.60;;;1.00;;
39322;SDS011;25036;53.638;10.134;2023-05-16T02:40:35;3.27;;;1.17;;
39322;SDS011;25036;53.638;10.134;2023-05-16T02:41:35;7.43;;;1.30;;
39322;SDS011;25036;53.638;10.134;2023-05-16T02:42:36;3.95;;;1.10;;
39322;SDS011;25036;53.638;10.134;2023-05-16T02:43:36;5.60;;;1.53;;
39322;SDS011;25036;53.638;10.134;2023-05-16T02:44:36;8.17;;;1.50;;
39322;SDS011;25036;53.638;10.134;2023-05-16T02:45:36;4.20;;;1.30;;
39322;SDS011;25036;53.638;10.134;2023-05-16T02:46:36;7.53;;;1.50;;
39322;SDS011;25036;53.638;10.134;2023-05-16T02:47:36;7.20;;;1.90;;
39322;SDS011;25036;53.638;10.134;2023-05-16T02:48:37;7.60;;;1.90;;
39322;SDS011;25036;53.638;10.134;2023-05-16T02:49:37;5.40;;;1.30;;
39322;SDS011;25036;53.638;10.134;2023-05-16T02:50:37;5.68;;;1.70;;
39322;SDS011;25036;53.638;10.134;2023-05-16T02:51:39;5.82;;;1.45;;
39322;SDS011;25036;53.638;10.134;2023-05-16T02:52:39;7.72;;;2.00;;
39322;SDS011;25036;53.638;10.134;2023-05-16T02:53:39;7.53;;;1.60;;
39322;SDS011;25036;53.638;10.134;2023-05-16T02:54:40;6.47;;;1.45;;
39322;SDS011;25036;53.638;10.134;2023-05-16T02:55:40;7.93;;;1.77;;
39322;SDS011;25036;53.638;10.134;2023-05-16T02:56:40;8.25;;;1.83;;
39322;SDS011;25036;53.638;10.134;2023-05-16T02:57:41;6.17;;;1.30;;
39322;SDS011;25036;53.638;10.134;2023-05-16T02:58:41;5.50;;;1.67;;
39322;SDS011;25036;53.638;10.134;2023-05-16T02:59:41;6.05;;;1.63;;
39322;SDS011;25036;53.638;10.134;2023-05-16T03:00:41;4.77;;;1.23;;
39322;SDS011;25036;53.638;10.134;2023-05-16T03:01:42;8.77;;;1.60;;
39322;SDS011;25036;53.638;10.134;2023-05-16T03:02:42;5.87;;;1.60;;
39322;SDS011;25036;53.638;10.134;2023-05-16T03:03:42;7.00;;;1.48;;
39322;SDS011;25036;53.638;10.134;2023-05-16T03:04:43;4.67;;;1.30;;
39322;SDS011;25036;53.638;10.134;2023-05-16T03:05:43;7.20;;;1.47;;
39322;SDS011;25036;53.638;10.134;2023-05-16T03:06:43;7.80;;;1.73;;
39322;SDS011;25036;53.638;10.134;2023-05-16T03:07:43;7.50;;;1.50;;
39322;SDS011;25036;53.638;10.134;2023-05-16T03:08:43;7.23;;;1.77;;
39322;SDS011;25036;53.638;10.134;2023-05-16T03:09:43;6.38;;;1.75;;
39322;SDS011;25036;53.638;10.134;2023-05-16T03:10:43;5.13;;;1.53;;
39322;SDS011;25036;53.638;10.134;2023-05-16T03:11:44;5.63;;;1.50;;
39322;SDS011;25036;53.638;10.134;2023-05-16T03:12:44;4.05;;;1.55;;
39322;SDS011;25036;53.638;10.134;2023-05-16T03:13:45;5.65;;;1.70;;
39322;SDS011;25036;53.638;10.134;2023-05-16T03:14:45;6.18;;;1.58;;
39322;SDS011;25036;53.638;10.134;2023-05-16T03:15:45;7.60;;;1.40;;
39322;SDS011;25036;53.638;10.134;2023-05-16T03:16:45;6.30;;;1.50;;
39322;SDS011;25036;53.638;10.134;2023-05-16T03:17:46;6.07;;;2.00;;
39322;SDS011;25036;53.638;10.134;2023-05-16T03:18:46;7.03;;;1.47;;
39322;SDS011;25036;53.638;10.134;2023-05-16T03:19:46;6.30;;;1.63;;
39322;SDS011;25036;53.638;10.134;2023-05-16T03:20:46;6.50;;;2.03;;
39322;SDS011;25036;53.638;10.134;2023-05-16T03:21:46;6.07;;;1.30;;
39322;SDS011;25036;53.638;10.134;2023-05-16T03:22:47;6.70;;;1.63;;
39322;SDS011;25036;53.638;10.134;2023-05-16T03:23:47;2.63;;;1.00;;
39322;SDS011;25036;53.638;10.134;2023-05-16T03:24:47;9.27;;;2.20;;
39322;SDS011;25036;53.638;10.134;2023-05-16T03:25:48;10.43;;;2.00;;
39322;SDS011;25036;53.638;10.134;2023-05-16T03:26:48;6.90;;;1.90;;
39322;SDS011;25036;53.638;10.134;2023-05-16T03:27:48;6.25;;;1.45;;
39322;SDS011;25036;53.638;10.134;2023-05-16T03:28:48;9.20;;;1.70;;
39322;SDS011;25036;53.638;10.134;2023-05-16T03:29:50;4.32;;;1.52;;
39322;SDS011;25036;53.638;10.134;2023-05-16T03:30:50;8.75;;;2.22;;
39322;SDS011;25036;53.638;10.134;2023-05-16T03:31:50;7.23;;;1.90;;
39322;SDS011;25036;53.638;10.134;2023-05-16T03:32:50;4.23;;;1.17;;
39322;SDS011;25036;53.638;10.134;2023-05-16T03:33:51;9.13;;;1.83;;
39322;SDS011;25036;53.638;10.134;2023-05-16T03:34:51;9.00;;;1.77;;
39322;SDS011;25036;53.638;10.134;2023-05-16T03:35:51;7.85;;;1.60;;
39322;SDS011;25036;53.638;10.134;2023-05-16T03:36:51;10.30;;;2.00;;
39322;SDS011;25036;53.638;10.134;2023-05-16T03:37:51;7.93;;;2.28;;
39322;SDS011;25036;53.638;10.134;2023-05-16T03:38:52;6.73;;;1.63;;
39322;SDS011;25036;53.638;10.134;2023-05-16T03:39:52;6.07;;;2.17;;
39322;SDS011;25036;53.638;10.134;2023-05-16T03:40:52;9.97;;;1.90;;
39322;SDS011;25036;53.638;10.134;2023-05-16T03:41:52;7.87;;;2.13;;
39322;SDS011;25036;53.638;10.134;2023-05-16T03:42:55;12.85;;;2.53;;
39322;SDS011;25036;53.638;10.134;2023-05-16T03:43:55;8.23;;;2.13;;
39322;SDS011;25036;53.638;10.134;2023-05-16T03:44:55;6.63;;;2.20;;
39322;SDS011;25036;53.638;10.134;2023-05-16T03:45:55;8.17;;;1.93;;
39322;SDS011;25036;53.638;10.134;2023-05-16T03:46:55;12.80;;;2.20;;
39322;SDS011;25036;53.638;10.134;2023-05-16T03:47:56;8.83;;;2.30;;
39322;SDS011;25036;53.638;10.134;2023-05-16T03:48:56;9.32;;;1.70;;
39322;SDS011;25036;53.638;10.134;2023-05-16T03:49:56;11.27;;;2.03;;
39322;SDS011;25036;53.638;10.134;2023-05-16T03:50:56;11.13;;;1.95;;
39322;SDS011;25036;53.638;10.134;2023-05-16T03:51:56;7.63;;;1.67;;
39322;SDS011;25036;53.638;10.134;2023-05-16T03:52:57;11.60;;;1.90;;
39322;SDS011;25036;53.638;10.134;2023-05-16T03:53:57;9.10;;;1.77;;
39322;SDS011;25036;53.638;10.134;2023-05-16T03:54:57;6.70;;;1.50;;
39322;SDS011;25036;53.638;10.134;2023-05-16T03:55:57;8.70;;;1.97;;
39322;SDS011;25036;53.638;10.134;2023-05-16T03:56:58;6.97;;;1.80;;
39322;SDS011;25036;53.638;10.134;2023-05-16T03:57:58;7.47;;;2.20;;
39322;SDS011;25036;53.638;10.134;2023-05-16T03:58:58;7.93;;;1.90;;
39322;SDS011;25036;53.638;10.134;2023-05-16T03:59:59;9.37;;;1.70;;
39322;SDS011;25036;53.638;10.134;2023-05-16T04:00:59;9.73;;;2.08;;
39322;SDS011;25036;53.638;10.134;2023-05-16T04:01:59;7.07;;;1.67;;
39322;SDS011;25036;53.638;10.134;2023-05-16T04:03:00;8.25;;;1.90;;
39322;SDS011;25036;53.638;10.134;2023-05-16T04:04:00;9.53;;;1.70;;
39322;SDS011;25036;53.638;10.134;2023-05-16T04:05:00;10.53;;;1.97;;
39322;SDS011;25036;53.638;10.134;2023-05-16T04:06:00;8.40;;;2.10;;
39322;SDS011;25036;53.638;10.134;2023-05-16T04:07:00;5.40;;;1.52;;
39322;SDS011;25036;53.638;10.134;2023-05-16T04:08:01;9.85;;;1.75;;
39322;SDS011;25036;53.638;10.134;2023-05-16T04:09:01;7.63;;;1.60;;
39322;SDS011;25036;53.638;10.134;2023-05-16T04:10:01;9.53;;;2.07;;
39322;SDS011;25036;53.638;10.134;2023-05-16T04:11:01;8.68;;;2.00;;
39322;SDS011;25036;53.638;10.134;2023-05-16T04:12:02;8.07;;;1.70;;
39322;SDS011;25036;53.638;10.134;2023-05-16T04:13:02;8.88;;;2.10;;
39322;SDS011;25036;53.638;10.134;2023-05-16T04:14:02;8.00;;;2.37;;
39322;SDS011;25036;53.638;10.134;2023-05-16T04:15:03;11.25;;;2.78;;
39322;SDS011;25036;53.638;10.134;2023-05-16T04:16:03;9.43;;;2.05;;
39322;SDS011;25036;53.638;10.134;2023-05-16T04:17:03;6.30;;;1.73;;
39322;SDS011;25036;53.638;10.134;2023-05-16T04:18:04;9.50;;;2.00;;
39322;SDS011;25036;53.638;10.134;2023-05-16T04:19:04;8.47;;;1.87;;
39322;SDS011;25036;53.638;10.134;2023-05-16T04:20:04;6.37;;;1.40;;
39322;SDS011;25036;53.638;10.134;2023-05-16T04:21:05;9.07;;;1.75;;
39322;SDS011;25036;53.638;10.134;2023-05-16T04:22:06;7.57;;;1.77;;
39322;SDS011;25036;53.638;10.134;2023-05-16T04:23:06;11.93;;;2.20;;
39322;SDS011;25036;53.638;10.134;2023-05-16T04:24:07;8.05;;;2.00;;
39322;SDS011;25036;53.638;10.134;2023-05-16T04:25:07;10.27;;;2.03;;
39322;SDS011;25036;53.638;10.134;2023-05-16T04:26:08;9.07;;;2.22;;
39322;SDS011;25036;53.638;10.134;2023-05-16T04:27:08;5.72;;;1.30;;
39322;SDS011;25036;53.638;10.134;2023-05-16T04:28:08;7.40;;;2.00;;
39322;SDS011;25036;53.638;10.134;2023-05-16T04:29:09;10.18;;;2.15;;
39322;SDS011;25036;53.638;10.134;2023-05-16T04:30:09;7.93;;;1.90;;
39322;SDS011;25036;53.638;10.134;2023-05-16T04:31:10;8.35;;;2.33;;
39322;SDS011;25036;53.638;10.134;2023-05-16T04:32:11;9.60;;;2.08;;
39322;SDS011;25036;53.638;10.134;2023-05-16T04:33:11;8.73;;;2.38;;
39322;SDS011;25036;53.638;10.134;2023-05-16T04:34:11;4.53;;;1.60;;
39322;SDS011;25036;53.638;10.134;2023-05-16T04:35:12;3.15;;;1.23;;
39322;SDS011;25036;53.638;10.134;2023-05-16T04:36:12;10.93;;;1.87;;
39322;SDS011;25036;53.638;10.134;2023-05-16T04:37:12;6.67;;;1.53;;
39322;SDS011;25036;53.638;10.134;2023-05-16T04:38:13;9.70;;;1.85;;
39322;SDS011;25036;53.638;10.134;2023-05-16T04:39:13;11.43;;;2.63;;
39322;SDS011;25036;53.638;10.134;2023-05-16T04:40:13;7.70;;;1.80;;
39322;SDS011;25036;53.638;10.134;2023-05-16T04:41:13;8.05;;;2.00;;
39322;SDS011;25036;53.638;10.134;2023-05-16T04:42:14;11.10;;;1.90;;
39322;SDS011;25036;53.638;10.134;2023-05-16T04:43:15;10.65;;;2.63;;
39322;SDS011;25036;53.638;10.134;2023-05-16T04:44:15;9.03;;;2.13;;
39322;SDS011;25036;53.638;10.134;2023-05-16T04:45:15;8.57;;;1.67;;
39322;SDS011;25036;53.638;10.134;2023-05-16T04:46:15;9.23;;;1.77;;
39322;SDS011;25036;53.638;10.134;2023-05-16T04:47:16;5.10;;;1.65;;
39322;SDS011;25036;53.638;10.134;2023-05-16T04:48:16;8.47;;;1.77;;
39322;SDS011;25036;53.638;10.134;2023-05-16T04:49:16;9.37;;;1.90;;
39322;SDS011;25036;53.638;10.134;2023-05-16T04:50:16;6.35;;;1.83;;
39322;SDS011;25036;53.638;10.134;2023-05-16T04:51:17;11.93;;;2.22;;
39322;SDS011;25036;53.638;10.134;2023-05-16T04:52:17;9.23;;;1.80;;
39322;SDS011;25036;53.638;10.134;2023-05-16T04:53:17;9.90;;;2.15;;
39322;SDS011;25036;53.638;10.134;2023-05-16T04:54:17;8.05;;;2.15;;
39322;SDS011;25036;53.638;10.134;2023-05-16T04:55:17;10.77;;;2.33;;
39322;SDS011;25036;53.638;10.134;2023-05-16T04:56:18;7.70;;;1.90;;
39322;SDS011;25036;53.638;10.134;2023-05-16T04:57:19;10.50;;;2.28;;
39322;SDS011;25036;53.638;10.134;2023-05-16T04:58:19;6.43;;;1.40;;
39322;SDS011;25036;53.638;10.134;2023-05-16T04:59:19;7.03;;;2.50;;
39322;SDS011;25036;53.638;10.134;2023-05-16T05:00:20;9.98;;;2.08;;
39322;SDS011;25036;53.638;10.134;2023-05-16T05:01:20;7.63;;;1.80;;
39322;SDS011;25036;53.638;10.134;2023-05-16T05:02:20;8.23;;;1.83;;
39322;SDS011;25036;53.638;10.134;2023-05-16T05:03:21;8.07;;;1.60;;
39322;SDS011;25036;53.638;10.134;2023-05-16T05:04:21;7.27;;;1.50;;
39322;SDS011;25036;53.638;10.134;2023-05-16T05:05:21;7.70;;;1.95;;
39322;SDS011;25036;53.638;10.134;2023-05-16T05:06:21;7.45;;;1.70;;
39322;SDS011;25036;53.638;10.134;2023-05-16T05:07:22;7.20;;;1.70;;
39322;SDS011;25036;53.638;10.134;2023-05-16T05:08:22;6.27;;;1.63;;
39322;SDS011;25036;53.638;10.134;2023-05-16T05:09:22;6.78;;;1.63;;
39322;SDS011;25036;53.638;10.134;2023-05-16T05:10:22;8.10;;;2.10;;
39322;SDS011;25036;53.638;10.134;2023-05-16T05:11:22;6.30;;;2.03;;
39322;SDS011;25036;53.638;10.134;2023-05-16T05:12:23;10.30;;;1.90;;
39322;SDS011;25036;53.638;10.134;2023-05-16T05:13:23;5.85;;;1.30;;
39322;SDS011;25036;53.638;10.134;2023-05-16T05:14:23;7.30;;;1.83;;
39322;SDS011;25036;53.638;10.134;2023-05-16T05:15:23;7.37;;;1.60;;
39322;SDS011;25036;53.638;10.134;2023-05-16T05:16:23;8.25;;;1.20;;
39322;SDS011;25036;53.638;10.134;2023-05-16T05:17:24;7.80;;;2.13;;
39322;SDS011;25036;53.638;10.134;2023-05-16T05:18:24;7.78;;;1.73;;
39322;SDS011;25036;53.638;10.134;2023-05-16T05:19:24;6.65;;;1.70;;
39322;SDS011;25036;53.638;10.134;2023-05-16T05:20:25;7.60;;;1.48;;
39322;SDS011;25036;53.638;10.134;2023-05-16T05:21:25;8.60;;;1.90;;
39322;SDS011;25036;53.638;10.134;2023-05-16T05:22:26;6.88;;;1.85;;
39322;SDS011;25036;53.638;10.134;2023-05-16T05:23:26;5.53;;;1.50;;
39322;SDS011;25036;53.638;10.134;2023-05-16T05:24:26;8.80;;;1.38;;
39322;SDS011;25036;53.638;10.134;2023-05-16T05:25:26;5.45;;;1.70;;
39322;SDS011;25036;53.638;10.134;2023-05-16T05:26:27;7.53;;;2.20;;
39322;SDS011;25036;53.638;10.134;2023-05-16T05:27:27;6.03;;;1.55;;
39322;SDS011;25036;53.638;10.134;2023-05-16T05:28:28;6.20;;;1.70;;
39322;SDS011;25036;53.638;10.134;2023-05-16T05:29:28;7.33;;;1.93;;
39322;SDS011;25036;53.638;10.134;2023-05-16T05:30:28;8.68;;;1.85;;
39322;SDS011;25036;53.638;10.134;2023-05-16T05:31:29;5.65;;;1.40;;
39322;SDS011;25036;53.638;10.134;2023-05-16T05:32:29;3.35;;;1.13;;
39322;SDS011;25036;53.638;10.134;2023-05-16T05:33:30;9.05;;;1.83;;
39322;SDS011;25036;53.638;10.134;2023-05-16T05:34:30;9.77;;;1.90;;
39322;SDS011;25036;53.638;10.134;2023-05-16T05:35:30;8.77;;;1.98;;
39322;SDS011;25036;53.638;10.134;2023-05-16T05:36:30;5.23;;;1.40;;
39322;SDS011;25036;53.638;10.134;2023-05-16T05:37:30;7.23;;;1.67;;
39322;SDS011;25036;53.638;10.134;2023-05-16T05:38:31;7.78;;;1.95;;
39322;SDS011;25036;53.638;10.134;2023-05-16T05:39:31;6.60;;;1.50;;
39322;SDS011;25036;53.638;10.134;2023-05-16T05:40:31;8.50;;;2.60;;
39322;SDS011;25036;53.638;10.134;2023-05-16T05:41:31;5.87;;;1.57;;
39322;SDS011;25036;53.638;10.134;2023-05-16T05:42:32;7.55;;;1.95;;
39322;SDS011;25036;53.638;10.134;2023-05-16T05:43:32;7.70;;;1.85;;
39322;SDS011;25036;53.638;10.134;2023-05-16T05:44:33;4.75;;;1.20;;
39322;SDS011;25036;53.638;10.134;2023-05-16T05:45:33;9.18;;;1.60;;
39322;SDS011;25036;53.638;10.134;2023-05-16T05:46:34;5.93;;;1.40;;
39322;SDS011;25036;53.638;10.134;2023-05-16T05:47:34;6.43;;;1.35;;
39322;SDS011;25036;53.638;10.134;2023-05-16T05:48:34;4.80;;;1.53;;
39322;SDS011;25036;53.638;10.134;2023-05-16T05:49:34;8.27;;;1.67;;
39322;SDS011;25036;53.638;10.134;2023-05-16T05:50:35;6.45;;;1.63;;
39322;SDS011;25036;53.638;10.134;2023-05-16T05:51:35;11.40;;;2.35;;
39322;SDS011;25036;53.638;10.134;2023-05-16T05:52:36;8.00;;;1.60;;
39322;SDS011;25036;53.638;10.134;2023-05-16T05:53:36;9.13;;;2.05;;
39322;SDS011;25036;53.638;10.134;2023-05-16T05:54:36;8.30;;;1.85;;
39322;SDS011;25036;53.638;10.134;2023-05-16T05:55:36;5.70;;;1.47;;
39322;SDS011;25036;53.638;10.134;2023-05-16T05:56:36;7.73;;;2.00;;
39322;SDS011;25036;53.638;10.134;2023-05-16T05:57:37;8.97;;;2.17;;
39322;SDS011;25036;53.638;10.134;2023-05-16T05:58:37;8.32;;;1.95;;
39322;SDS011;25036;53.638;10.134;2023-05-16T05:59:38;10.82;;;2.17;;
39322;SDS011;25036;53.638;10.134;2023-05-16T06:00:38;5.63;;;1.43;;
39322;SDS011;25036;53.638;10.134;2023-05-16T06:01:38;5.90;;;1.57;;
39322;SDS011;25036;53.638;10.134;2023-05-16T06:02:38;9.13;;;1.60;;
39322;SDS011;25036;53.638;10.134;2023-05-16T06:03:39;7.80;;;1.70;;
39322;SDS011;25036;53.638;10.134;2023-05-16T06:04:39;6.85;;;1.63;;
39322;SDS011;25036;53.638;10.134;2023-05-16T06:05:41;7.50;;;1.80;;
39322;SDS011;25036;53.638;10.134;2023-05-16T06:06:41;8.95;;;1.73;;
39322;SDS011;25036;53.638;10.134;2023-05-16T06:07:42;8.00;;;1.83;;